Warning: Javascript must be enabled to use all the features on this page!


Page Loading - Please Wait...

Click to hideNews Bulletins

Peak Streamflow for Missouri

Click to hide state-specific text

USGS 07068000 Current River at Doniphan, MO

Ripley County, Missouri
Hydrologic Unit Code 11010008
Latitude  36°37'19", Longitude  90°50'51" NAD27
Drainage area 2,038  square miles
Gage datum 321.42 feet above NAVD88
Output formats
Table
Graph
Tab-separated file
peakfq (watstore) format
Reselect output format
Water
Year
Date Gage
Height
(feet)
Stream-
flow
(cfs)
1904 1904-03 24.90Bd 130,0007,Bd
1915 1915-08 23.80Bd 105,0007,Bd
1919 1919-06-05 9.055 19,400
1920 1920-03-27 9.145 19,700
1921 1921-04-27 13.545 35,400
1922 1922-04-01 11.50 22,000
1923 1923-02-03 13.00 29,600
1924 1924-05-31 5.48 8,300
1925 1925-06-13 4.50 6,540
1926 1925-10-18 6.50 10,300
1927 1927-04-15 17.30 48,800
1928 1928-06-14 15.98 43,000
1929 1929-05-14 12.40 27,800
1930 1930-01-15 12.10 25,500
1931 1931-03-09 6.95 9,500
1932 1932-01-24 6.41 8,300
1933 1933-05-15 19.93 49,000
1934 1934-09-16 6.63 6,210
1935 1935-03-12 22.00 94,400
1936 1935-11-11 7.45 7,400
1937 1937-01-14 16.28 48,400
1938 1938-02-19 15.72 43,100
1939 1939-04-18 16.41 49,300
1940 1940-04-20 9.02 12,500
1941 1941-01-03 5.00 5,110
1942 1941-11-02 9.89 15,400
1943 1942-12-29 19.13 63,600
1944 1944-04-24 11.70 20,300
1945 1945-04-16 19.05 62,800
1946 1946-08-16 17.46 50,600
1947 1947-04-27 13.20 26,800
1948 1948-01-02 11.50 20,600
1949 1949-01-26 18.30 57,000
1950 1950-05-11 18.20 56,200
1951 1951-07-11 12.26 24,400
1952 1952-03-12 11.73 22,200
1953 1953-03-05 6.23 8,530
1954 1954-05-03 6.68 9,530
1955 1955-03-22 13.88 30,900
1956 1956-05-16 17.17 49,000
1957 1957-04-05 17.98 54,600
1958 1958-03-25 15.72 39,600
1959 1958-11-17 13.38 28,700
1960 1959-12-29 11.63 21,900
1961 1961-05-09 17.00 47,600
1962 1962-03-22 10.50 18,600
1963 1963-05-28 12.64 25,500
1964 1964-03-10 13.71 30,100
1965 1965-04-08 6.93 10,700
1966 1966-02-11 19.27 65,300
1967 1967-01-28 4.06 6,250
1968 1967-12-23 12.35 26,000
1969 1969-01-31 18.73 60,300
1970 1970-04-21 9.22 16,700
1971 1970-10-15 8.29 15,000
1972 1972-04-23 13.33 25,200
1973 1973-04-24 13.77 26,600
1974 1973-11-27 16.51 38,600
1975 1975-01-12 15.23 32,600
1976 1976-07-05 9.81 16,000
1977 1977-03-30 15.69 34,700
1978 1978-03-26 12.55 22,900
1979 1979-04-13 17.00 41,500
1980 1980-04-01 4.45 5,620
1981 1981-05-16 8.38 12,800
1982 1982-01-31 14.46 31,600
1983 1982-12-03 25.49 122,000
1984 1984-03-21 11.24 26,300
1985 1985-02-25 21.10 78,900
1986 1985-11-20 21.88 85,900
1987 1987-03-19 5.011 8,270
1988 1987-12-27 11.24 26,500
1989 1989-02-15 11.58 27,900
1990 1990-05-05 12.22 30,500
1991 1991-04-15 12.76 32,700
1992 1992-04-21 15.03 42,900
1993 1993-09-27 16.05 47,900
1994 1993-11-15 23.63 92,300
1995 1995-05-03 9.38 19,200
1996 1996-04-24 11.42 25,900
1997 1997-02-28 10.74 23,500
1998 1998-06-22 11.98 29,500
1999 1999-02-09 15.10 41,500
2000 2000-02-19 3.68 5,740
2001 2001-02-26 8.23 16,600
2002 2002-05-10 20.58 70,400
2003 2003-04-27 5.03 9,040
2004 2003-11-20 13.39 33,000
2005 2005-01-15 8.84 18,500
2006 2006-05-12 8.23 15,500
2007 2006-12-02 13.15 30,600
2008 2008-03-19 24.11 95,200
2009 2009-02-13 8.40 15,900
2010 2009-10-31 18.92 59,700
2011 2011-04-26 23.76 90,100
2012 2011-12-16 3.66 6,410
2013 2013-06-03 13.77 33,200
2014 2014-04-28 10.51 22,200
2015 2015-07-12 12.74 29,100
2016 2015-12-30 22.69 81,400
2017 2017-05-01 33.13 183,000
2018 2018-02-26 13.33 31,400
2019 2019-05-03 15.20 39,700
2020 2020-03-21 15.64 41,900
?
  Peak Gage-Height Qualification Codes.
?
  Peak Streamflow Qualification Codes.